createdAt,value
2018-07-13T00:00:28.839Z,10.00
2018-07-13T00:02:58.017Z,10.37
2018-07-13T00:05:27.249Z,11.57
2018-07-13T00:07:56.473Z,11.83
2018-07-13T00:10:25.689Z,9.90
2018-07-13T00:12:54.881Z,9.33
2018-07-13T00:15:24.107Z,9.53
2018-07-13T00:17:53.304Z,10.00
2018-07-13T00:20:22.510Z,9.00
2018-07-13T00:22:51.989Z,9.87
2018-07-13T00:25:22.174Z,9.20
2018-07-13T00:27:51.538Z,8.00
2018-07-13T00:30:20.737Z,9.37
2018-07-13T00:32:49.934Z,8.67
2018-07-13T00:35:19.140Z,9.80
2018-07-13T00:37:48.345Z,9.30
2018-07-13T00:40:18.565Z,10.53
2018-07-13T00:42:47.769Z,9.97
2018-07-13T00:45:16.983Z,10.83
2018-07-13T00:47:46.271Z,10.20
2018-07-13T00:50:15.537Z,10.67
2018-07-13T00:52:44.804Z,9.97
2018-07-13T00:55:14.038Z,10.50
2018-07-13T00:57:43.300Z,10.20
2018-07-13T01:00:12.564Z,11.13
2018-07-13T01:02:41.813Z,12.00
2018-07-13T01:05:11.041Z,11.43
2018-07-13T01:07:40.260Z,12.03
2018-07-13T01:10:09.620Z,12.00
2018-07-13T01:12:38.841Z,12.20
2018-07-13T01:15:08.164Z,13.80
2018-07-13T01:17:37.387Z,13.13
2018-07-13T01:20:06.636Z,14.73
2018-07-13T01:22:35.886Z,14.10
2018-07-13T01:25:05.214Z,14.90
2018-07-13T01:27:34.511Z,14.10
2018-07-13T01:30:03.835Z,15.07
2018-07-13T01:32:33.085Z,13.43
2018-07-13T01:35:02.315Z,14.50
2018-07-13T01:37:31.567Z,14.30
2018-07-13T01:40:00.804Z,14.00
2018-07-13T01:42:30.030Z,14.00
2018-07-13T01:44:59.298Z,13.87
2018-07-13T01:47:28.544Z,13.33
2018-07-13T01:49:57.776Z,14.20
2018-07-13T01:52:27.055Z,12.93
2018-07-13T01:54:56.400Z,12.80
2018-07-13T01:57:25.662Z,12.90
2018-07-13T01:59:54.915Z,13.60
2018-07-13T02:02:24.165Z,13.23
2018-07-13T02:04:53.385Z,14.33
2018-07-13T02:07:22.609Z,13.93
2018-07-13T02:09:53.406Z,13.53
2018-07-13T02:12:22.713Z,13.43
2018-07-13T02:14:52.416Z,14.37
2018-07-13T02:17:22.081Z,14.67
2018-07-13T02:19:51.274Z,14.27
2018-07-13T02:22:20.573Z,13.20
2018-07-13T02:24:49.840Z,12.93
2018-07-13T02:27:19.071Z,14.53
2018-07-13T02:29:48.275Z,13.30
2018-07-13T02:32:17.614Z,14.17
2018-07-13T02:34:46.890Z,13.53
2018-07-13T02:37:16.129Z,14.53
2018-07-13T02:39:45.344Z,16.60
2018-07-13T02:42:14.596Z,16.00
2018-07-13T02:44:43.820Z,14.20
2018-07-13T02:47:13.091Z,14.97
2018-07-13T02:49:42.294Z,15.47
2018-07-13T02:52:11.542Z,15.93
2018-07-13T02:54:40.940Z,17.90
2018-07-13T02:57:10.194Z,18.83
2018-07-13T02:59:39.437Z,19.90
2018-07-13T03:02:08.642Z,18.57
2018-07-13T03:04:37.869Z,17.60
2018-07-13T03:07:07.070Z,18.03
2018-07-13T03:09:36.322Z,22.50
2018-07-13T03:12:05.576Z,21.00
2018-07-13T03:14:34.849Z,22.13
2018-07-13T03:17:04.100Z,21.47
2018-07-13T03:19:34.233Z,20.30
2018-07-13T03:22:03.685Z,21.87
2018-07-13T03:24:33.394Z,21.50
2018-07-13T03:27:02.802Z,22.67
2018-07-13T03:29:32.217Z,20.77
2018-07-13T03:32:01.545Z,22.90
2018-07-13T03:34:30.969Z,22.23
2018-07-13T03:37:00.630Z,25.20
2018-07-13T03:39:29.825Z,22.57
2018-07-13T03:41:59.086Z,23.20
2018-07-13T03:44:28.295Z,23.50
2018-07-13T03:46:57.608Z,25.50
2018-07-13T03:49:26.824Z,24.60
2018-07-13T03:51:56.049Z,25.03
2018-07-13T03:54:25.349Z,24.70
2018-07-13T03:56:54.608Z,24.77
2018-07-13T03:59:23.869Z,27.37
2018-07-13T04:01:53.107Z,26.67
2018-07-13T04:04:22.322Z,25.87
2018-07-13T04:06:51.732Z,25.73
2018-07-13T04:09:20.920Z,27.63
2018-07-13T04:11:50.597Z,24.87
2018-07-13T04:14:19.784Z,27.20
2018-07-13T04:16:49.975Z,26.67
2018-07-13T04:19:19.190Z,26.40
2018-07-13T04:21:48.437Z,26.80
2018-07-13T04:24:17.684Z,25.50
2018-07-13T04:26:47.617Z,25.53
2018-07-13T04:29:16.889Z,26.33
2018-07-13T04:31:46.167Z,25.00
2018-07-13T04:34:15.369Z,25.40
2018-07-13T04:36:44.604Z,24.80
2018-07-13T04:39:14.148Z,25.03
2018-07-13T04:41:43.588Z,24.87
2018-07-13T04:44:12.777Z,26.57
2018-07-13T04:46:42.022Z,24.93
2018-07-13T04:49:11.239Z,25.37
2018-07-13T04:51:40.504Z,28.10
2018-07-13T04:54:09.808Z,27.33
2018-07-13T04:56:39.096Z,26.17
2018-07-13T04:59:08.340Z,26.47
2018-07-13T05:01:37.607Z,24.73
2018-07-13T05:04:06.807Z,23.20
2018-07-13T05:06:36.097Z,24.20
2018-07-13T05:09:07.025Z,24.47
2018-07-13T05:11:36.402Z,22.07
2018-07-13T05:14:05.786Z,21.43
2018-07-13T05:16:35.320Z,21.07
2018-07-13T05:19:04.574Z,21.30
2018-07-13T05:21:34.118Z,22.10
2018-07-13T05:24:03.364Z,22.97
2018-07-13T05:26:32.642Z,20.20
2018-07-13T05:29:01.875Z,15.30
2018-07-13T05:31:31.104Z,14.43
2018-07-13T05:34:00.298Z,15.30
2018-07-13T05:36:29.625Z,12.30
2018-07-13T05:38:58.831Z,10.70
2018-07-13T05:41:28.039Z,10.23
2018-07-13T05:43:57.289Z,10.70
2018-07-13T05:46:26.516Z,9.13
2018-07-13T05:48:55.760Z,9.33
2018-07-13T05:51:24.952Z,7.93
2018-07-13T05:53:54.161Z,7.43
2018-07-13T05:56:23.542Z,7.40
2018-07-13T05:58:52.748Z,7.80
2018-07-13T06:01:22.043Z,6.70
2018-07-13T06:03:51.267Z,4.67
2018-07-13T06:06:20.456Z,5.83
2018-07-13T06:08:49.674Z,4.00
2018-07-13T06:11:18.886Z,3.53
2018-07-13T06:13:48.088Z,2.77
2018-07-13T06:16:17.292Z,3.23
2018-07-13T06:18:46.497Z,3.13
2018-07-13T06:21:15.717Z,2.80
2018-07-13T06:23:44.951Z,2.87
2018-07-13T06:26:14.159Z,3.13
2018-07-13T06:28:43.328Z,2.67
2018-07-13T06:31:12.769Z,2.63
2018-07-13T06:33:41.937Z,2.50
2018-07-13T06:36:11.153Z,2.60
2018-07-13T06:38:40.409Z,2.43
2018-07-13T06:41:09.685Z,2.50
2018-07-13T06:43:38.935Z,2.27
2018-07-13T06:46:08.324Z,2.10
2018-07-13T06:48:37.531Z,2.50
2018-07-13T06:51:06.770Z,1.87
2018-07-13T06:53:36.022Z,2.40
2018-07-13T06:56:05.252Z,2.37
2018-07-13T06:58:45.519Z,2.90
2018-07-13T07:01:14.761Z,2.33
2018-07-13T07:04:46.408Z,2.30
2018-07-13T07:07:17.965Z,2.40
2018-07-13T07:10:03.605Z,2.53
2018-07-13T07:12:51.933Z,2.77
2018-07-13T07:15:21.466Z,3.20
2018-07-13T07:17:50.747Z,2.07
2018-07-13T07:20:19.930Z,2.37
2018-07-13T07:22:49.156Z,3.17
2018-07-13T07:25:18.696Z,3.10
2018-07-13T07:27:47.944Z,2.43
2018-07-13T07:30:17.149Z,3.10
2018-07-13T07:32:46.344Z,2.30
2018-07-13T07:35:15.583Z,4.30
2018-07-13T07:37:44.757Z,3.10
2018-07-13T07:40:14.040Z,2.30
2018-07-13T07:42:43.275Z,2.70
2018-07-13T07:45:12.506Z,2.70
2018-07-13T07:47:41.685Z,3.33
2018-07-13T07:50:10.907Z,3.07
2018-07-13T07:52:40.109Z,2.63
2018-07-13T07:55:09.373Z,2.20
2018-07-13T07:57:38.702Z,2.60
2018-07-13T08:00:07.913Z,2.60
2018-07-13T08:02:37.127Z,2.60
2018-07-13T08:05:06.459Z,3.13
2018-07-13T08:07:35.842Z,2.50
2018-07-13T08:10:05.081Z,3.17
2018-07-13T08:12:34.298Z,3.00
2018-07-13T08:15:03.508Z,3.23
2018-07-13T08:17:32.725Z,2.93
2018-07-13T08:20:02.065Z,3.40
2018-07-13T08:22:33.520Z,3.17
2018-07-13T08:25:04.981Z,3.37
2018-07-13T08:27:41.405Z,2.90
2018-07-13T08:30:16.496Z,3.10
2018-07-13T08:32:46.152Z,3.20
2018-07-13T08:35:15.570Z,2.60
2018-07-13T08:38:47.468Z,2.30
2018-07-13T08:41:16.732Z,2.80
2018-07-13T08:43:45.981Z,2.50
2018-07-13T08:46:15.228Z,2.53
2018-07-13T08:48:44.462Z,2.57
2018-07-13T08:51:13.799Z,2.27
2018-07-13T08:53:43.138Z,2.37
2018-07-13T08:56:12.409Z,2.60
2018-07-13T08:58:41.664Z,2.87
2018-07-13T09:01:10.921Z,3.10
2018-07-13T09:03:40.177Z,2.60
2018-07-13T09:06:09.450Z,2.60
2018-07-13T09:08:38.725Z,2.30
2018-07-13T09:11:08.217Z,2.40
2018-07-13T09:13:37.477Z,2.30
2018-07-13T09:16:06.699Z,2.33
2018-07-13T09:18:35.890Z,3.03
2018-07-13T09:21:05.112Z,2.70
2018-07-13T09:23:34.344Z,2.50
2018-07-13T09:26:03.623Z,2.57
2018-07-13T09:28:32.857Z,2.70
2018-07-13T09:31:02.148Z,2.57
2018-07-13T09:33:31.458Z,2.20
2018-07-13T09:36:00.798Z,2.60
2018-07-13T09:38:29.999Z,2.70
2018-07-13T09:40:59.240Z,2.57
2018-07-13T09:43:28.460Z,2.30
2018-07-13T09:45:57.721Z,2.30
2018-07-13T09:48:27.110Z,2.30
2018-07-13T09:50:56.342Z,2.60
2018-07-13T09:53:25.573Z,2.30
2018-07-13T09:55:54.811Z,2.20
2018-07-13T09:58:29.473Z,2.70
2018-07-13T10:01:03.918Z,2.23
2018-07-13T10:03:33.149Z,2.37
2018-07-13T10:06:02.572Z,2.20
2018-07-13T10:08:32.500Z,2.50
2018-07-13T10:11:01.727Z,2.10
2018-07-13T10:13:31.380Z,2.73
2018-07-13T10:16:00.556Z,2.80
2018-07-13T10:18:29.754Z,3.00
2018-07-13T10:20:59.611Z,2.80
2018-07-13T10:23:29.337Z,2.00
2018-07-13T10:26:02.913Z,2.93
2018-07-13T10:28:32.894Z,2.90
2018-07-13T10:31:02.285Z,3.20
2018-07-13T10:33:31.588Z,2.90
2018-07-13T10:36:01.895Z,2.70
2018-07-13T10:38:31.186Z,2.30
2018-07-13T10:41:00.503Z,2.60
2018-07-13T10:43:29.755Z,2.43
2018-07-13T10:45:58.956Z,2.40
2018-07-13T10:48:28.332Z,2.53
2018-07-13T10:50:57.549Z,2.60
2018-07-13T10:53:26.788Z,2.63
2018-07-13T10:55:56.154Z,2.60
2018-07-13T10:58:25.332Z,2.43
2018-07-13T11:00:54.569Z,2.53
2018-07-13T11:03:23.832Z,2.60
2018-07-13T11:05:53.013Z,2.30
2018-07-13T11:08:22.328Z,2.30
2018-07-13T11:10:51.530Z,2.50
2018-07-13T11:13:20.809Z,2.00
2018-07-13T11:15:50.327Z,2.60
2018-07-13T11:18:19.582Z,2.70
2018-07-13T11:20:48.818Z,2.40
2018-07-13T11:23:18.055Z,2.73
2018-07-13T11:25:47.286Z,2.03
2018-07-13T11:28:16.569Z,2.60
2018-07-13T11:30:45.766Z,2.70
2018-07-13T11:33:14.989Z,3.00
2018-07-13T11:35:44.247Z,2.67
2018-07-13T11:38:13.480Z,2.63
2018-07-13T11:40:42.678Z,2.43
2018-07-13T11:43:11.951Z,2.70
2018-07-13T11:45:41.194Z,2.57
2018-07-13T11:48:10.475Z,2.73
2018-07-13T11:50:39.723Z,3.00
2018-07-13T11:53:17.279Z,3.10
2018-07-13T11:55:46.486Z,3.10
2018-07-13T11:58:16.563Z,2.70
2018-07-13T12:00:46.016Z,2.83
2018-07-13T12:03:15.230Z,2.90
2018-07-13T12:05:44.504Z,2.90
2018-07-13T12:08:13.769Z,2.80
2018-07-13T12:10:43.126Z,2.90
2018-07-13T12:13:12.347Z,2.73
2018-07-13T12:15:41.824Z,2.53
2018-07-13T12:20:46.264Z,3.80
2018-07-13T12:23:15.529Z,3.07
2018-07-13T12:25:44.777Z,3.60
2018-07-13T12:28:13.987Z,3.53
2018-07-13T12:30:43.203Z,4.03
2018-07-13T12:33:12.412Z,3.17
2018-07-13T12:35:41.618Z,3.00
2018-07-13T12:38:10.987Z,3.63
2018-07-13T12:40:40.274Z,3.77
2018-07-13T12:43:09.574Z,3.40
2018-07-13T12:45:38.837Z,3.70
2018-07-13T12:48:08.034Z,3.50
2018-07-13T12:50:37.360Z,3.27
2018-07-13T12:53:06.888Z,3.60
2018-07-13T12:55:36.127Z,3.13
2018-07-13T12:58:05.389Z,3.30
2018-07-13T13:00:34.594Z,3.23
2018-07-13T13:03:03.812Z,3.87
2018-07-13T13:05:33.139Z,3.30
2018-07-13T13:08:02.330Z,2.90
2018-07-13T13:10:31.537Z,2.70
2018-07-13T13:13:00.763Z,3.00
2018-07-13T13:15:29.974Z,3.37
2018-07-13T13:17:59.225Z,3.17
2018-07-13T13:20:28.457Z,3.30
2018-07-13T13:22:57.664Z,2.97
2018-07-13T13:25:26.837Z,3.73
2018-07-13T13:27:56.036Z,3.73
2018-07-13T13:30:25.214Z,3.90
2018-07-13T13:32:54.398Z,4.00
2018-07-13T13:35:23.777Z,3.50
2018-07-13T13:37:52.969Z,2.90
2018-07-13T13:40:22.225Z,2.53
2018-07-13T13:42:51.421Z,3.23
2018-07-13T13:45:20.674Z,3.30
2018-07-13T13:47:50.090Z,3.23
2018-07-13T13:50:19.256Z,3.00
2018-07-13T13:52:48.449Z,4.20
2018-07-13T13:55:17.847Z,3.00
2018-07-13T13:57:47.099Z,2.93
2018-07-13T14:00:16.295Z,3.00
2018-07-13T14:02:45.553Z,4.00
2018-07-13T14:05:14.876Z,3.20
2018-07-13T14:07:44.039Z,3.27
2018-07-13T14:10:13.259Z,2.80
2018-07-13T14:12:42.473Z,2.70
2018-07-13T14:15:11.701Z,2.97
2018-07-13T14:17:40.975Z,2.90
2018-07-13T14:20:10.241Z,2.30
2018-07-13T14:22:39.456Z,2.60
2018-07-13T14:25:08.733Z,2.87
2018-07-13T14:27:37.964Z,2.63
2018-07-13T14:30:07.519Z,3.20
2018-07-13T14:32:37.111Z,3.40
2018-07-13T14:35:06.449Z,3.40
2018-07-13T14:37:35.706Z,2.90
2018-07-13T14:40:04.964Z,2.60
2018-07-13T14:42:35.313Z,2.37
2018-07-13T14:45:04.689Z,2.60
2018-07-13T14:47:33.929Z,3.00
2018-07-13T14:50:03.192Z,3.13
2018-07-13T14:52:32.437Z,3.10
2018-07-13T14:55:01.722Z,3.20
2018-07-13T14:57:30.934Z,3.43
2018-07-13T15:00:00.181Z,3.60
2018-07-13T15:02:29.394Z,3.27
2018-07-13T15:04:58.677Z,3.30
2018-07-13T15:07:27.857Z,2.50
2018-07-13T15:09:57.081Z,2.77
2018-07-13T15:12:27.351Z,3.07
2018-07-13T15:14:56.722Z,3.90
2018-07-13T15:17:25.982Z,3.83
2018-07-13T15:19:55.150Z,3.97
2018-07-13T15:22:24.418Z,4.20
2018-07-13T15:24:53.608Z,3.90
2018-07-13T15:27:22.799Z,4.00
2018-07-13T15:29:52.016Z,4.13
2018-07-13T15:32:21.306Z,4.20
2018-07-13T15:34:50.554Z,4.10
2018-07-13T15:37:19.840Z,3.73
2018-07-13T15:39:49.072Z,4.20
2018-07-13T15:42:18.360Z,4.10
2018-07-13T15:44:47.618Z,4.47
2018-07-13T15:47:16.855Z,4.30
2018-07-13T15:49:46.013Z,4.50
2018-07-13T15:52:15.268Z,5.33
2018-07-13T15:54:45.450Z,4.47
2018-07-13T15:57:14.637Z,5.13
2018-07-13T15:59:43.844Z,5.20
2018-07-13T16:02:13.070Z,6.00
2018-07-13T16:04:42.284Z,4.33
2018-07-13T16:07:12.497Z,4.90
2018-07-13T16:09:41.686Z,5.00
2018-07-13T16:12:10.902Z,4.90
2018-07-13T16:14:40.529Z,5.60
2018-07-13T16:17:09.765Z,5.80
2018-07-13T16:19:39.043Z,5.30
2018-07-13T16:22:08.404Z,5.27
2018-07-13T16:24:37.596Z,4.90
2018-07-13T16:27:06.799Z,5.60
2018-07-13T16:29:36.007Z,5.97
2018-07-13T16:32:05.288Z,5.03
2018-07-13T16:34:34.474Z,5.57
2018-07-13T16:37:03.705Z,5.40
2018-07-13T16:39:32.909Z,5.13
2018-07-13T16:42:02.725Z,6.10
2018-07-13T16:44:32.180Z,5.27
2018-07-13T16:47:01.567Z,6.60
2018-07-13T16:49:30.854Z,6.67
2018-07-13T16:52:00.231Z,6.60
2018-07-13T16:54:29.669Z,6.43
2018-07-13T16:56:59.246Z,5.67
2018-07-13T16:59:28.720Z,5.50
2018-07-13T17:01:58.067Z,7.70
2018-07-13T17:04:27.299Z,6.30
2018-07-13T17:06:56.501Z,8.10
2018-07-13T17:09:25.682Z,6.60
2018-07-13T17:11:54.882Z,7.57
2018-07-13T17:14:24.069Z,6.27
2018-07-13T17:16:53.277Z,5.80
2018-07-13T17:19:22.512Z,6.27
2018-07-13T17:21:51.683Z,5.77
2018-07-13T17:24:20.982Z,6.43
2018-07-13T17:26:50.253Z,7.07
2018-07-13T17:29:19.477Z,6.60
2018-07-13T17:31:48.681Z,6.00
2018-07-13T17:34:17.971Z,5.60
2018-07-13T17:36:47.272Z,6.50
2018-07-13T17:39:16.622Z,5.83
2018-07-13T17:41:45.810Z,6.27
2018-07-13T17:44:14.982Z,6.40
2018-07-13T17:46:44.174Z,6.53
2018-07-13T17:49:13.475Z,5.67
2018-07-13T17:51:42.702Z,6.00
2018-07-13T17:54:11.905Z,5.73
2018-07-13T17:56:41.106Z,5.70
2018-07-13T17:59:10.349Z,5.40
2018-07-13T18:01:39.628Z,5.00
2018-07-13T18:04:08.903Z,5.90
2018-07-13T18:06:38.135Z,5.90
2018-07-13T18:09:07.709Z,5.20
2018-07-13T18:11:37.059Z,5.97
2018-07-13T18:14:06.278Z,5.63
2018-07-13T18:16:35.461Z,5.43
2018-07-13T18:19:04.653Z,5.70
2018-07-13T18:21:33.862Z,5.63
2018-07-13T18:24:03.046Z,5.40
2018-07-13T18:26:32.221Z,5.73
2018-07-13T18:29:01.396Z,6.80
2018-07-13T18:31:30.610Z,5.30
2018-07-13T18:33:59.849Z,5.60
2018-07-13T18:36:29.037Z,6.07
2018-07-13T18:38:58.210Z,5.43
2018-07-13T18:41:27.405Z,5.63
2018-07-13T18:43:56.617Z,6.97
2018-07-13T18:46:26.242Z,6.27
2018-07-13T18:48:55.447Z,5.80
2018-07-13T18:51:24.640Z,6.23
2018-07-13T18:53:53.801Z,6.83
2018-07-13T18:56:22.998Z,6.30
2018-07-13T18:58:52.175Z,6.37
2018-07-13T19:01:21.349Z,7.30
2018-07-13T19:03:50.553Z,7.20
2018-07-13T19:06:19.837Z,8.90
2018-07-13T19:08:49.182Z,7.70
2018-07-13T19:11:18.367Z,6.63
2018-07-13T19:13:47.534Z,7.40
2018-07-13T19:16:16.709Z,7.30
2018-07-13T19:18:46.103Z,11.30
2018-07-13T19:21:15.297Z,11.73
2018-07-13T19:23:44.470Z,13.60
2018-07-13T19:26:13.645Z,10.50
2018-07-13T19:28:42.829Z,11.13
2018-07-13T19:31:12.070Z,8.60
2018-07-13T19:33:41.261Z,9.80
2018-07-13T19:36:10.561Z,10.00
2018-07-13T19:38:39.782Z,8.80
2018-07-13T19:41:08.958Z,15.90
2018-07-13T19:43:38.153Z,16.43
2018-07-13T19:46:07.377Z,13.53
2018-07-13T19:48:36.635Z,13.63
2018-07-13T19:51:05.853Z,11.27
2018-07-13T19:53:35.057Z,21.90
2018-07-13T19:56:04.233Z,10.90
2018-07-13T19:58:33.405Z,12.73
2018-07-13T20:01:02.613Z,13.40
2018-07-13T20:03:31.789Z,10.73
2018-07-13T20:06:02.029Z,10.50
2018-07-13T20:08:31.215Z,11.63
2018-07-13T20:11:00.403Z,11.47
2018-07-13T20:13:29.609Z,11.00
2018-07-13T20:15:58.811Z,13.80
2018-07-13T20:18:27.990Z,14.77
2018-07-13T20:20:57.245Z,12.70
2018-07-13T20:23:26.675Z,10.07
2018-07-13T20:25:55.856Z,11.73
2018-07-13T20:28:25.017Z,9.80
2018-07-13T20:30:54.205Z,11.73
2018-07-13T20:33:23.444Z,13.67
2018-07-13T20:35:52.597Z,12.80
2018-07-13T20:38:21.788Z,13.73
2018-07-13T20:40:50.976Z,15.17
2018-07-13T20:43:20.146Z,14.23
2018-07-13T20:45:49.326Z,16.37
2018-07-13T20:48:18.510Z,19.40
2018-07-13T20:50:47.705Z,21.60
2018-07-13T20:53:17.049Z,22.90
2018-07-13T20:55:46.248Z,19.90
2018-07-13T20:58:15.425Z,18.90
2018-07-13T21:00:44.610Z,18.83
2018-07-13T21:03:13.771Z,19.37
2018-07-13T21:05:43.202Z,16.57
2018-07-13T21:08:12.397Z,13.60
2018-07-13T21:10:41.572Z,11.70
2018-07-13T21:13:11.161Z,10.43
2018-07-13T21:15:40.448Z,10.37
2018-07-13T21:18:09.640Z,9.83
2018-07-13T21:20:38.886Z,11.07
2018-07-13T21:23:08.135Z,10.73
2018-07-13T21:25:37.304Z,12.20
2018-07-13T21:28:06.663Z,10.30
2018-07-13T21:30:35.892Z,10.80
2018-07-13T21:33:05.050Z,9.77
2018-07-13T21:35:34.222Z,26.80
2018-07-13T21:38:03.479Z,40.43
2018-07-13T21:40:32.869Z,34.67
2018-07-13T21:43:02.053Z,19.83
2018-07-13T21:45:31.237Z,18.27
2018-07-13T21:48:00.408Z,16.53
2018-07-13T21:50:29.605Z,13.77
2018-07-13T21:52:58.808Z,12.57
2018-07-13T21:55:28.015Z,14.57
2018-07-13T21:57:57.211Z,11.23
2018-07-13T22:00:26.427Z,11.77
2018-07-13T22:02:55.597Z,12.10
2018-07-13T22:05:24.765Z,17.23
2018-07-13T22:07:53.941Z,34.40
2018-07-13T22:10:23.257Z,46.63
2018-07-13T22:12:52.481Z,40.27
2018-07-13T22:15:21.652Z,42.30
2018-07-13T22:17:50.824Z,23.93
2018-07-13T22:20:20.061Z,14.00
2018-07-13T22:22:49.230Z,14.63
2018-07-13T22:25:18.401Z,13.80
2018-07-13T22:27:47.558Z,16.20
2018-07-13T22:30:16.732Z,16.40
2018-07-13T22:32:45.914Z,13.67
2018-07-13T22:35:15.092Z,11.27
2018-07-13T22:37:44.294Z,11.67
2018-07-13T22:40:13.517Z,18.03
2018-07-13T22:42:42.649Z,18.60
2018-07-13T22:45:11.805Z,21.07
2018-07-13T22:47:41.013Z,18.53
2018-07-13T22:50:10.200Z,16.70
2018-07-13T22:52:39.377Z,19.00
2018-07-13T22:55:08.579Z,17.80
2018-07-13T22:57:37.752Z,19.77
2018-07-13T23:00:07.498Z,21.57
2018-07-13T23:02:36.733Z,19.77
2018-07-13T23:05:06.015Z,17.10
2018-07-13T23:07:35.180Z,13.83
2018-07-13T23:10:04.401Z,16.80
2018-07-13T23:12:33.585Z,16.90
2018-07-13T23:15:02.769Z,22.00
2018-07-13T23:17:31.929Z,24.03
2018-07-13T23:20:01.134Z,21.80
2018-07-13T23:22:30.296Z,19.60
2018-07-13T23:24:59.476Z,17.53
2018-07-13T23:27:28.734Z,14.67
2018-07-13T23:29:57.952Z,12.90
2018-07-13T23:32:27.229Z,12.77
2018-07-13T23:34:56.392Z,14.30
2018-07-13T23:37:25.565Z,16.27
2018-07-13T23:39:54.731Z,15.17
2018-07-13T23:42:23.905Z,14.77
2018-07-13T23:44:53.085Z,16.03
2018-07-13T23:47:22.251Z,14.27
2018-07-13T23:49:51.400Z,14.57
2018-07-13T23:52:20.564Z,15.47
2018-07-13T23:54:49.732Z,17.03
2018-07-13T23:57:18.897Z,15.70
2018-07-13T23:59:48.083Z,15.00
